Time;durP1;ratioP1;P1;durP2;ratioP2;P2;SDS_P1;SDS_P2;PMS_P1;PMS_P2;Temp;Humidity;BMP_temperature;BMP_pressure;BME280_temperature;BME280_humidity;BME280_pressure;Samples;Min_cycle;Max_cycle;Signal;HPM_P1;HPM_P2
2022/09/23 00:00:45;;;;;;;7.50;4.90;;;8.90;70.70;;;7.60;89.11;96324.47;4980606;28;20059;-65
2022/09/23 00:03:11;;;;;;;6.97;4.93;;;8.90;70.90;;;7.60;89.53;96319.25;4950220;28;20081;-65
2022/09/23 00:05:37;;;;;;;6.57;4.97;;;8.90;71.10;;;7.56;90.12;96317.13;4967926;28;20117;-65
2022/09/23 00:08:04;;;;;;;8.43;5.45;;;8.90;71.30;;;7.57;90.16;96321.38;4971428;28;20036;-65
2022/09/23 00:10:30;;;;;;;6.53;5.10;;;8.90;71.60;;;7.55;90.13;96311.06;4984989;28;20037;-65
2022/09/23 00:12:56;;;;;;;6.93;4.88;;;8.80;71.50;;;7.49;89.95;96313.53;4964086;28;20088;-65
2022/09/23 00:15:24;;;;;;;6.10;4.50;;;8.70;71.50;;;7.47;90.26;96320.72;4990992;28;20160;-65
2022/09/23 00:17:52;;;;;;;7.50;4.82;;;8.70;71.50;;;7.42;90.39;96317.78;4963466;28;20065;-65
2022/09/23 00:20:18;;;;;;;10.30;4.75;;;8.60;71.60;;;7.36;90.42;96312.22;4977444;28;20571;-65
2022/09/23 00:22:44;;;;;;;6.05;4.40;;;8.60;71.60;;;7.33;90.79;96312.56;4960087;28;20051;-65
2022/09/23 00:25:10;;;;;;;6.55;5.15;;;8.60;71.60;;;7.26;90.49;96301.13;4993084;28;20043;-65
2022/09/23 00:27:36;;;;;;;7.97;5.30;;;8.60;71.70;;;7.26;90.94;96311.59;5007406;28;20041;-64
2022/09/23 00:30:05;;;;;;;7.60;4.78;;;8.60;71.90;;;7.23;91.97;96308.44;5014609;28;20403;-65
2022/09/23 00:32:30;;;;;;;8.10;4.65;;;8.50;71.90;;;7.19;91.67;96300.13;4966131;28;20038;-65
2022/09/23 00:34:56;;;;;;;6.45;4.32;;;8.60;72.10;;;7.18;91.48;96305.50;4955466;28;20034;-65
2022/09/23 00:37:22;;;;;;;7.65;5.32;;;8.50;72.30;;;7.14;91.54;96304.22;4995783;28;20085;-65
2022/09/23 00:39:47;;;;;;;6.50;4.57;;;8.50;72.10;;;7.10;91.63;96298.47;5018937;28;20032;-65
2022/09/23 00:42:21;;;;;;;7.57;4.68;;;8.40;72.00;;;7.01;93.30;96292.41;4970131;28;20521;-65
2022/09/23 00:44:55;;;;;;;6.68;5.22;;;8.30;71.90;;;7.01;93.77;96296.81;4993668;28;20117;-65
2022/09/23 00:47:34;;;;;;;6.93;4.90;;;8.30;72.30;;;6.93;95.22;96300.25;4952034;28;20060;-64
2022/09/23 00:50:23;;;;;;;6.93;5.18;;;8.20;72.40;;;6.90;95.60;96299.75;4988033;28;20524;-65
2022/09/23 00:52:50;;;;;;;7.78;5.05;;;8.20;72.40;;;6.85;92.74;96288.97;5013568;28;20032;-64
2022/09/23 00:55:22;;;;;;;7.65;5.45;;;8.10;72.60;;;6.80;93.68;96288.66;5020476;28;20032;-65
2022/09/23 00:57:48;;;;;;;8.75;5.45;;;8.10;73.00;;;6.81;92.43;96295.50;4981722;28;20128;-65
2022/09/23 01:00:13;;;;;;;6.90;5.50;;;8.10;73.10;;;6.78;93.23;96291.41;4965108;28;20030;-65
2022/09/23 01:02:39;;;;;;;8.35;5.25;;;8.10;73.20;;;6.74;93.03;96296.13;4949372;28;20038;-65
2022/09/23 01:05:06;;;;;;;6.78;5.18;;;8.10;73.30;;;6.75;93.29;96291.72;5009585;28;20118;-66
2022/09/23 01:07:31;;;;;;;7.15;4.72;;;8.10;73.30;;;6.74;93.09;96295.31;5042026;28;20052;-66
2022/09/23 01:09:58;;;;;;;5.90;4.63;;;8.10;73.50;;;6.72;94.04;96282.41;5026045;28;20038;-66
2022/09/23 01:12:56;;;;;;;7.28;5.43;;;8.10;73.40;;;6.70;97.35;96275.69;4955361;28;20047;-66
2022/09/23 01:15:37;;;;;;;7.18;5.25;;;8.10;73.50;;;6.65;96.88;96268.34;4966254;28;20099;-66
2022/09/23 01:18:40;;;;;;;8.25;5.13;;;8.00;73.40;;;6.65;97.51;96276.19;4963478;28;20066;-66
2022/09/23 01:21:42;;;;;;;7.10;5.18;;;8.00;73.60;;;6.62;98.21;96273.91;5002910;28;20074;-69
2022/09/23 01:24:49;;;;;;;7.40;5.38;;;8.00;73.80;;;6.61;98.46;96279.28;4944691;28;20039;-66
2022/09/23 01:27:50;;;;;;;6.80;4.95;;;8.00;73.70;;;6.56;98.06;96271.91;5021221;28;20413;-66
2022/09/23 01:31:00;;;;;;;8.52;5.47;;;7.90;73.80;;;6.53;99.37;96267.00;4979461;28;20038;-66
2022/09/23 01:33:34;;;;;;;8.23;5.55;;;7.90;74.00;;;6.51;97.05;96263.72;5007425;28;20414;-66
2022/09/23 01:36:22;;;;;;;7.05;5.13;;;7.80;74.10;;;6.51;99.14;96260.28;4987172;28;20031;-67
2022/09/23 01:39:02;;;;;;;7.40;5.47;;;7.90;74.30;;;6.50;98.34;96263.88;4956201;28;20432;-66
2022/09/23 01:41:54;;;;;;;7.82;5.40;;;7.90;74.10;;;6.46;98.35;96260.78;4971350;28;20046;-66
2022/09/23 01:44:28;;;;;;;6.45;5.10;;;7.80;74.00;;;6.44;97.59;96252.28;4990169;28;20053;-67
2022/09/23 01:47:00;;;;;;;9.38;5.55;;;7.80;74.30;;;6.45;98.60;96259.16;4972720;28;20118;-66
2022/09/23 01:49:38;;;;;;;8.48;5.68;;;7.90;74.30;;;6.44;99.46;96249.69;4974869;28;20046;-66
2022/09/23 01:52:14;;;;;;;8.02;5.80;;;7.90;74.40;;;6.46;98.96;96242.50;4957793;28;20042;-66
2022/09/23 01:54:49;;;;;;;8.30;5.63;;;7.90;74.60;;;6.47;99.46;96245.91;4977620;28;20060;-66
2022/09/23 01:57:30;;;;;;;8.93;6.00;;;7.90;74.70;;;6.47;100.00;96241.50;4933932;28;20035;-66
2022/09/23 02:00:09;;;;;;;8.38;6.47;;;7.90;75.10;;;6.49;99.46;96244.78;5016348;28;20039;-66
2022/09/23 02:02:40;;;;;;;9.82;6.43;;;7.90;75.10;;;6.50;98.11;96245.59;4950330;28;20126;-66
2022/09/23 02:05:10;;;;;;;8.82;6.63;;;8.00;75.20;;;6.48;99.12;96240.53;4954287;28;20047;-66
2022/09/23 02:07:39;;;;;;;9.98;6.30;;;7.90;75.20;;;6.47;100.00;96238.91;4978995;28;20043;-66
2022/09/23 02:10:16;;;;;;;11.13;6.80;;;8.00;75.40;;;6.48;100.00;96245.75;4979091;28;20536;-66
2022/09/23 02:12:44;;;;;;;9.00;6.78;;;8.00;75.40;;;6.49;99.01;96243.97;4933851;28;20621;-66
2022/09/23 02:15:14;;;;;;;9.32;6.40;;;7.90;75.30;;;6.48;99.57;96253.59;4917014;28;20039;-66
2022/09/23 02:17:54;;;;;;;9.00;6.30;;;7.90;75.10;;;6.48;100.00;96251.00;4934020;28;20035;-66
2022/09/23 02:20:33;;;;;;;50.08;33.03;;;7.90;74.80;;;6.48;100.00;96252.78;4965511;28;20536;-66
2022/09/23 02:23:18;;;;;;;28.10;18.40;;;7.90;75.40;;;6.48;100.00;96258.00;5001606;28;20043;-66
2022/09/23 02:26:15;;;;;;;14.60;10.70;;;7.90;75.40;;;6.45;100.00;96253.91;5060186;28;20086;-66
2022/09/23 02:28:47;;;;;;;14.07;9.50;;;7.90;75.10;;;6.44;100.00;96257.50;5041867;28;20045;-66
2022/09/23 02:31:53;;;;;;;37.38;26.40;;;7.90;75.40;;;6.44;100.00;96249.69;4971674;28;20145;-66
2022/09/23 02:34:56;;;;;;;21.20;15.23;;;7.90;75.40;;;6.40;100.00;96251.78;4941818;28;20039;-67
2022/09/23 02:37:38;;;;;;;12.55;8.18;;;7.90;75.40;;;6.38;100.00;96243.31;5010656;28;20066;-66
2022/09/23 02:40:14;;;;;;;10.82;7.53;;;7.70;75.60;;;6.37;100.00;96251.31;5030907;28;20113;-66
2022/09/23 02:42:55;;;;;;;9.75;7.47;;;7.70;75.70;;;6.34;100.00;96246.41;4961750;28;20984;-66
2022/09/23 02:45:20;;;;;;;8.73;6.60;;;7.70;75.90;;;6.33;100.00;96249.97;4977985;28;20034;-67
2022/09/23 02:47:50;;;;;;;10.43;7.45;;;7.70;76.10;;;6.31;100.00;96244.06;4952032;28;20410;-66
2022/09/23 02:50:17;;;;;;;10.63;7.18;;;7.70;76.00;;;6.31;99.71;96246.69;4982670;28;20038;-66
2022/09/23 02:52:45;;;;;;;9.45;6.95;;;7.70;75.90;;;6.31;100.00;96241.47;4968798;28;20043;-66
2022/09/23 02:55:10;;;;;;;8.77;6.78;;;7.70;76.00;;;6.29;99.83;96244.22;4967304;28;20049;-66
2022/09/23 02:57:36;;;;;;;10.55;7.25;;;7.70;76.20;;;6.30;100.00;96242.44;4940556;28;20126;-66
2022/09/23 03:00:03;;;;;;;9.60;7.78;;;7.70;76.20;;;6.28;100.00;96239.16;4986574;28;20035;-66
2022/09/23 03:03:05;;;;;;;9.60;7.72;;;7.70;76.40;;;6.27;100.00;96234.91;4961471;28;20054;-65
2022/09/23 03:05:35;;;;;;;9.63;7.68;;;7.70;76.70;;;6.25;100.00;96236.88;5020260;28;20029;-68
2022/09/23 03:08:49;;;;;;;21.50;15.55;;;7.70;76.90;;;6.26;100.00;96233.28;4946877;28;20047;-68
2022/09/23 03:11:16;;;;;;;67.03;44.33;;;7.80;77.40;;;6.26;100.00;96228.06;4990319;28;20128;-66
2022/09/23 03:13:50;;;;;;;36.25;25.42;;;7.80;77.80;;;6.29;100.00;96232.97;4966886;28;20035;-69
2022/09/23 03:16:29;;;;;;;13.60;9.77;;;7.80;77.60;;;6.27;100.00;96234.91;5051287;28;20047;-67
2022/09/23 03:19:24;;;;;;;11.57;9.38;;;7.70;77.10;;;6.25;100.00;96226.44;4986078;28;20039;-67
2022/09/23 03:22:04;;;;;;;12.32;8.30;;;7.70;76.70;;;6.20;100.00;96224.31;4937532;28;20035;-67
2022/09/23 03:24:31;;;;;;;11.00;7.65;;;7.60;76.60;;;6.21;100.00;96225.13;4963549;28;20500;-66
2022/09/23 03:26:59;;;;;;;16.98;12.73;;;7.60;76.50;;;6.21;100.00;96225.13;4983524;28;20414;-67
2022/09/23 03:29:25;;;;;;;23.58;15.55;;;7.70;76.80;;;6.21;100.00;96223.31;4965883;28;20031;-67
2022/09/23 03:31:51;;;;;;;15.23;12.25;;;7.70;77.30;;;6.21;100.00;96225.13;4978778;28;20845;-67
2022/09/23 03:34:23;;;;;;;22.15;15.60;;;7.70;77.10;;;6.22;100.00;96222.34;5022190;28;20042;-67
2022/09/23 03:37:00;;;;;;;19.02;13.40;;;7.70;76.90;;;6.22;100.00;96221.53;5028611;28;20076;-67
2022/09/23 03:39:32;;;;;;;27.83;19.33;;;7.80;76.80;;;6.21;100.00;96223.31;5038599;28;20437;-67
2022/09/23 03:42:05;;;;;;;12.10;8.93;;;7.70;76.90;;;6.21;100.00;96225.13;4991043;28;20076;-67
2022/09/23 03:44:36;;;;;;;10.38;7.88;;;7.70;76.90;;;6.20;100.00;96226.09;4956189;28;20065;-67
2022/09/23 03:47:03;;;;;;;11.77;7.97;;;7.60;77.00;;;6.18;100.00;96221.03;4975006;28;20047;-67
2022/09/23 03:49:32;;;;;;;10.00;7.68;;;7.70;77.00;;;6.17;100.00;96219.41;5001851;28;20414;-66
2022/09/23 03:51:59;;;;;;;11.60;7.72;;;7.70;77.10;;;6.14;100.00;96220.53;4945982;28;20449;-65
2022/09/23 03:54:24;;;;;;;8.68;7.07;;;7.60;77.10;;;6.11;100.00;96218.25;4971674;28;20058;-65
2022/09/23 03:56:50;;;;;;;10.57;7.75;;;7.70;77.00;;;6.11;100.00;96220.00;4956043;28;20502;-65
2022/09/23 03:59:16;;;;;;;10.57;7.28;;;7.60;77.10;;;6.08;100.00;96218.53;4965807;28;20055;-65
2022/09/23 04:01:42;;;;;;;11.13;7.50;;;7.60;77.10;;;6.06;100.00;96217.88;4995878;28;20047;-70
2022/09/23 04:04:08;;;;;;;13.05;8.38;;;7.60;77.20;;;6.04;100.00;96213.78;4963455;28;20042;-65
2022/09/23 04:06:34;;;;;;;10.80;7.88;;;7.60;77.10;;;6.01;100.00;96211.50;4962438;28;20035;-66
2022/09/23 04:09:03;;;;;;;11.65;7.70;;;7.50;77.20;;;5.96;100.00;96211.97;4998346;28;20041;-66
2022/09/23 04:11:28;;;;;;;9.98;7.72;;;7.50;77.40;;;5.97;100.00;96215.41;5021442;28;20062;-64
2022/09/23 04:13:55;;;;;;;9.48;7.82;;;7.50;77.60;;;5.94;100.00;96208.72;4987691;28;20100;-65
2022/09/23 04:16:20;;;;;;;11.70;8.13;;;7.40;77.60;;;5.96;100.00;96211.16;4964175;28;20035;-66
2022/09/23 04:18:46;;;;;;;10.95;8.07;;;7.50;77.50;;;5.94;100.00;96207.91;4985552;28;20032;-65
2022/09/23 04:21:12;;;;;;;11.45;8.00;;;7.40;76.90;;;5.92;100.00;96210.66;4931449;28;20409;-65
2022/09/23 04:23:37;;;;;;;11.52;8.90;;;7.40;76.90;;;5.88;100.00;96209.28;4964737;28;20043;-65
2022/09/23 04:26:04;;;;;;;10.52;8.35;;;7.40;77.40;;;5.86;100.00;96211.25;4969949;28;20680;-65
2022/09/23 04:28:30;;;;;;;9.52;7.78;;;7.40;77.60;;;5.84;100.00;96211.41;4950612;28;20533;-65
2022/09/23 04:30:56;;;;;;;11.05;8.48;;;7.30;77.10;;;5.81;100.00;96208.28;5009689;28;20035;-65
2022/09/23 04:33:23;;;;;;;11.70;8.27;;;7.30;77.20;;;5.82;100.00;96204.69;4938755;28;1032205;-66
2022/09/23 04:35:50;;;;;;;11.32;9.45;;;7.30;77.60;;;5.80;100.00;96204.84;4995213;28;20466;-67
2022/09/23 04:38:16;;;;;;;15.25;11.30;;;7.40;77.60;;;5.79;100.00;96199.78;5028812;28;20025;-67
2022/09/23 04:40:42;;;;;;;14.02;9.73;;;7.30;77.90;;;5.78;100.00;96201.59;5087883;28;20175;-66
2022/09/23 04:43:08;;;;;;;14.57;9.48;;;7.40;77.90;;;5.76;100.00;96203.53;5053772;28;20036;-67
2022/09/23 04:45:34;;;;;;;12.93;9.60;;;7.30;77.40;;;5.73;100.00;96208.25;5027896;28;20028;-67
2022/09/23 04:48:01;;;;;;;12.70;9.10;;;7.20;77.80;;;5.69;100.00;96206.94;5029535;28;20090;-65
2022/09/23 04:50:26;;;;;;;13.25;10.10;;;7.20;78.10;;;5.70;100.00;96205.97;5053802;28;20033;-66
2022/09/23 04:52:52;;;;;;;11.98;9.23;;;7.20;78.30;;;5.68;100.00;96213.94;5069751;28;20032;-67
2022/09/23 04:55:18;;;;;;;14.18;8.93;;;7.20;77.60;;;5.66;100.00;96209.84;5035840;28;20065;-67
2022/09/23 04:57:44;;;;;;;13.13;9.65;;;7.20;77.20;;;5.63;100.00;96215.38;5027582;28;20500;-67
2022/09/23 05:00:11;;;;;;;10.73;8.23;;;7.10;76.30;;;5.58;100.00;96209.81;5071401;28;20033;-66
2022/09/23 05:02:45;;;;;;;10.80;7.95;;;7.10;76.30;;;5.53;100.00;96216.31;5071150;28;20040;-67
2022/09/23 05:05:11;;;;;;;12.25;8.55;;;7.00;76.10;;;5.48;100.00;96212.53;5040054;28;20118;-66
2022/09/23 05:07:37;;;;;;;11.10;8.15;;;6.90;76.40;;;5.45;100.00;96208.44;5007286;28;20062;-66
2022/09/23 05:10:03;;;;;;;11.13;8.00;;;6.90;76.70;;;5.41;100.00;96211.50;4968229;28;20051;-67
2022/09/23 05:12:29;;;;;;;12.40;8.07;;;6.90;76.60;;;5.41;100.00;96217.53;5049573;28;20483;-66
2022/09/23 05:14:55;;;;;;;11.80;8.30;;;6.90;76.80;;;5.39;100.00;96218.66;5051529;28;20062;-67
2022/09/23 05:17:21;;;;;;;10.30;8.00;;;6.80;76.90;;;5.35;100.00;96228.59;5019269;28;20027;-67
2022/09/23 05:19:46;;;;;;;12.10;8.32;;;6.80;76.80;;;5.30;100.00;96225.63;5069222;28;20039;-67
2022/09/23 05:22:12;;;;;;;9.10;7.45;;;6.70;76.60;;;5.28;100.00;96227.56;5027130;28;20172;-67
2022/09/23 05:24:38;;;;;;;13.25;8.63;;;6.70;76.50;;;5.26;100.00;96219.09;4967313;28;20058;-66
2022/09/23 05:27:06;;;;;;;10.70;8.10;;;6.70;76.80;;;5.23;100.00;96217.59;5010843;28;20168;-66
2022/09/23 05:29:32;;;;;;;13.77;9.90;;;6.80;77.20;;;5.25;100.00;96217.44;4988681;28;20035;-66
2022/09/23 05:31:58;;;;;;;17.33;12.20;;;6.80;77.40;;;5.27;100.00;96225.13;4967528;28;20092;-66
2022/09/23 05:34:24;;;;;;;24.90;16.13;;;6.90;77.90;;;5.30;100.00;96220.41;5062191;28;20046;-67
2022/09/23 05:36:50;;;;;;;15.68;11.13;;;7.00;78.30;;;5.33;100.00;96214.88;4994454;28;20120;-66
2022/09/23 05:39:16;;;;;;;12.52;10.25;;;7.00;78.00;;;5.36;100.00;96225.00;4984111;28;20105;-66
2022/09/23 05:41:42;;;;;;;11.65;9.00;;;7.10;78.00;;;5.38;100.00;96222.25;4968776;28;20573;-66
2022/09/23 05:44:08;;;;;;;13.93;9.38;;;7.00;77.60;;;5.40;100.00;96225.50;5011195;28;20069;-66
2022/09/23 05:46:34;;;;;;;14.60;10.50;;;7.10;77.60;;;5.39;100.00;96224.69;5068825;28;20399;-66
2022/09/23 05:49:00;;;;;;;13.73;10.32;;;7.10;78.50;;;5.44;100.00;96230.28;5080166;28;20040;-66
2022/09/23 05:51:27;;;;;;;13.52;10.27;;;7.10;78.40;;;5.46;100.00;96230.97;5048834;28;20563;-65
2022/09/23 05:53:54;;;;;;;12.45;9.93;;;7.20;78.50;;;5.50;100.00;96226.25;5028071;28;20040;-66
2022/09/23 05:56:21;;;;;;;15.32;10.13;;;7.30;78.50;;;5.54;100.00;96228.38;5014344;28;20032;-66
2022/09/23 05:58:48;;;;;;;11.73;9.43;;;7.30;78.50;;;5.60;100.00;96223.50;5019404;28;20070;-66
2022/09/23 06:01:17;;;;;;;13.38;9.35;;;7.40;78.70;;;5.65;100.00;96223.84;5068845;28;20029;-66
2022/09/23 06:03:52;;;;;;;12.70;9.95;;;7.40;78.70;;;5.68;100.00;96220.97;5068592;28;20106;-66
2022/09/23 06:06:36;;;;;;;12.73;10.23;;;7.50;78.80;;;5.74;100.00;96222.94;5020778;28;20036;-66
2022/09/23 06:09:02;;;;;;;16.73;9.82;;;7.50;78.80;;;5.77;100.00;96226.06;5024633;28;20032;-66
2022/09/23 06:11:33;;;;;;;12.00;9.82;;;7.60;78.80;;;5.83;100.00;96222.00;5010673;28;20035;-65
2022/09/23 06:14:01;;;;;;;23.03;10.27;;;7.70;78.80;;;5.89;100.00;96212.75;5052211;28;20033;-66
2022/09/23 06:16:32;;;;;;;16.40;10.25;;;7.70;78.70;;;5.93;100.00;96214.09;5017687;28;20028;-67
2022/09/23 06:19:00;;;;;;;14.57;11.32;;;7.70;78.40;;;5.94;100.00;96213.94;5042496;28;20102;-66
2022/09/23 06:21:26;;;;;;;13.80;10.63;;;7.80;78.10;;;6.01;100.00;96222.75;5085491;28;20033;-66
2022/09/23 06:23:51;;;;;;;14.32;10.98;;;7.90;78.10;;;6.07;100.00;96227.34;5069835;28;20033;-66
2022/09/23 06:26:17;;;;;;;19.67;11.30;;;7.90;78.20;;;6.10;100.00;96224.41;5026554;28;20404;-66
2022/09/23 06:28:43;;;;;;;14.25;10.93;;;7.90;78.20;;;6.13;100.00;96223.31;5032185;28;20488;-66
2022/09/23 06:31:12;;;;;;;12.32;10.15;;;8.00;78.30;;;6.14;100.00;96220.53;5084970;28;20438;-66
2022/09/23 06:33:38;;;;;;;13.85;10.30;;;8.00;78.40;;;6.17;100.00;96224.63;5067137;28;20032;-66
2022/09/23 06:36:05;;;;;;;12.65;10.27;;;8.00;78.30;;;6.22;100.00;96218.91;5026698;28;20554;-66
2022/09/23 06:38:34;;;;;;;12.93;10.20;;;8.10;78.30;;;6.28;100.00;96213.88;5085196;28;20063;-66
2022/09/23 06:41:01;;;;;;;16.63;10.10;;;8.20;78.30;;;6.39;100.00;96218.00;5084612;28;20058;-66
2022/09/23 06:43:27;;;;;;;12.13;8.85;;;8.30;78.00;;;6.50;100.00;96220.28;5051948;28;20105;-66
2022/09/23 06:45:59;;;;;;;11.95;9.30;;;8.50;77.80;;;6.59;100.00;96216.72;5027598;28;20515;-66
2022/09/23 06:48:26;;;;;;;29.48;10.63;;;8.60;77.40;;;6.69;100.00;96212.16;5068686;28;20104;-66
2022/09/23 06:50:52;;;;;;;19.77;10.45;;;8.70;77.00;;;6.76;100.00;96212.31;5084692;28;20511;-66
2022/09/23 06:53:19;;;;;;;17.15;9.55;;;8.80;76.60;;;6.89;100.00;96217.88;5054137;28;20058;-66
2022/09/23 06:55:45;;;;;;;18.48;9.10;;;9.00;76.60;;;7.03;100.00;96216.44;5025654;28;20039;-67
2022/09/23 06:58:10;;;;;;;12.32;8.18;;;9.10;76.30;;;7.18;100.00;96220.00;5026192;28;20033;-67
2022/09/23 07:00:36;;;;;;;12.40;7.95;;;9.40;75.90;;;7.34;100.00;96219.19;5051429;28;20093;-66
2022/09/23 07:03:08;;;;;;;9.77;7.28;;;9.60;75.10;;;7.52;100.00;96225.03;5008303;28;20039;-66
2022/09/23 07:05:34;;;;;;;9.77;6.90;;;9.80;75.00;;;7.71;100.00;96218.63;5051534;28;20046;-66
2022/09/23 07:08:00;;;;;;;9.15;6.93;;;10.10;74.10;;;7.87;100.00;96215.94;5053543;28;20039;-67
2022/09/23 07:10:29;;;;;;;8.60;6.63;;;10.20;73.50;;;8.13;100.00;96228.75;5015995;28;20031;-66
2022/09/23 07:12:55;;;;;;;9.15;6.40;;;10.60;72.50;;;8.35;100.00;96227.22;4999405;28;20028;-67
2022/09/23 07:15:21;;;;;;;8.82;6.13;;;10.70;70.90;;;8.53;100.00;96222.53;5016868;28;20035;-67
2022/09/23 07:17:47;;;;;;;9.00;6.05;;;10.90;70.10;;;8.73;100.00;96227.34;5068127;28;20052;-66
2022/09/23 07:20:12;;;;;;;7.43;6.55;;;11.10;69.30;;;8.90;100.00;96224.44;5069917;28;20055;-67
2022/09/23 07:22:38;;;;;;;8.50;5.97;;;11.30;69.20;;;9.12;100.00;96214.91;5036090;28;20415;-66
2022/09/23 07:25:05;;;;;;;6.57;5.88;;;11.70;68.70;;;9.40;100.00;96211.69;4991854;28;20054;-66
2022/09/23 07:27:30;;;;;;;9.93;6.00;;;12.10;67.30;;;9.57;100.00;96215.81;5067270;28;20073;-66
2022/09/23 07:29:56;;;;;;;7.35;6.03;;;12.30;65.60;;;9.83;100.00;96215.38;5055175;28;20070;-67
2022/09/23 07:32:22;;;;;;;8.35;5.78;;;13.10;64.10;;;10.16;100.00;96214.97;5053902;28;20079;-67
2022/09/23 07:34:48;;;;;;;7.22;5.25;;;13.90;62.30;;;10.55;100.00;96219.94;5022792;28;20123;-67
2022/09/23 07:37:14;;;;;;;7.30;5.57;;;14.70;59.80;;;10.92;100.00;96219.72;5054135;28;21378;-67
2022/09/23 07:39:40;;;;;;;7.07;5.10;;;15.40;57.30;;;11.24;97.90;96223.63;5072609;28;20029;-67
2022/09/23 07:42:06;;;;;;;6.88;5.70;;;16.00;54.30;;;11.56;97.23;96219.66;5064242;28;20751;-67
2022/09/23 07:44:32;;;;;;;6.40;5.43;;;16.60;52.70;;;11.87;95.33;96221.09;5030591;28;20071;-66
2022/09/23 07:46:58;;;;;;;5.55;4.78;;;17.00;51.00;;;12.14;94.36;96222.84;5071124;28;20833;-66
2022/09/23 07:49:25;;;;;;;9.30;5.15;;;17.60;50.70;;;12.39;93.27;96214.44;5054688;28;20449;-66
2022/09/23 07:51:51;;;;;;;7.97;5.20;;;18.10;49.20;;;12.69;93.26;96221.06;5065352;28;20501;-66
2022/09/23 07:54:18;;;;;;;5.45;4.63;;;18.70;48.20;;;13.07;91.36;96216.03;5029296;28;20151;-66
2022/09/23 07:56:44;;;;;;;10.88;5.10;;;19.20;45.90;;;13.42;90.48;96211.44;5031353;28;20027;-66
2022/09/23 07:59:17;;;;;;;5.90;4.53;;;19.80;45.20;;;13.83;87.96;96215.66;4996951;28;20144;-66
2022/09/23 08:01:47;;;;;;;6.47;5.00;;;20.30;44.80;;;14.21;87.32;96220.22;5071706;28;20041;-66
2022/09/23 08:04:20;;;;;;;;;;;20.70;43.10;;;14.57;81.46;96215.25;5073164;28;20035;-66
2022/09/23 08:06:52;;;;;;;5.00;4.50;;;21.20;42.10;;;14.92;85.67;96217.50;5034247;28;19953;-66
2022/09/23 08:09:20;;;;;;;5.13;4.32;;;21.50;40.40;;;15.31;83.96;96217.22;4988020;28;20046;-66
2022/09/23 08:11:45;;;;;;;5.38;4.05;;;21.90;40.30;;;15.62;81.54;96218.25;4969130;28;20043;-67
2022/09/23 08:14:12;;;;;;;6.30;4.05;;;22.10;39.40;;;15.93;79.34;96214.69;4968810;28;20422;-66
2022/09/23 08:16:39;;;;;;;6.00;4.28;;;22.50;39.10;;;16.30;77.19;96209.41;5028712;28;20111;-67
2022/09/23 08:19:06;;;;;;;6.50;3.80;;;22.80;38.30;;;16.58;75.37;96208.88;5012213;28;20043;-66
2022/09/23 08:21:31;;;;;;;5.72;4.28;;;23.10;37.90;;;16.87;73.69;96215.25;5026634;28;20028;-66
2022/09/23 08:23:57;;;;;;;4.60;3.58;;;23.20;37.30;;;17.12;72.03;96216.72;5072016;28;20174;-66
2022/09/23 08:26:23;;;;;;;6.22;3.83;;;23.40;36.70;;;17.36;70.87;96214.13;5070934;28;20048;-67
2022/09/23 08:28:52;;;;;;;5.78;3.97;;;23.50;36.50;;;17.60;68.61;96199.81;5049849;28;20039;-65
2022/09/23 08:31:18;;;;;;;4.32;3.55;;;23.70;37.00;;;17.88;69.91;96198.34;5000935;28;20023;-66
2022/09/23 08:33:44;;;;;;;4.50;3.25;;;23.90;37.30;;;18.17;68.63;96205.38;5070376;28;20025;-66
2022/09/23 08:36:10;;;;;;;3.67;3.15;;;24.10;36.40;;;18.39;67.29;96207.44;5070879;28;20108;-67
2022/09/23 08:38:36;;;;;;;3.50;2.95;;;24.30;36.10;;;18.50;65.73;96203.91;5058487;28;20090;-66
2022/09/23 08:41:27;;;;;;;3.90;3.10;;;24.20;35.60;;;18.64;61.24;96199.97;5009940;28;20023;-67
2022/09/23 08:44:17;;;;;;;5.38;3.00;;;24.10;36.10;;;18.87;62.21;96205.22;4965330;28;20039;-66
2022/09/23 08:46:53;;;;;;;3.42;2.75;;;24.20;37.00;;;19.07;59.83;96198.63;4950825;28;20506;-67
2022/09/23 08:49:44;;;;;;;3.65;2.90;;;24.40;35.70;;;19.24;59.77;96204.81;4961260;28;20039;-67
2022/09/23 08:52:22;;;;;;;3.95;2.95;;;24.40;36.10;;;19.42;58.88;96191.22;5012547;28;20035;-66
2022/09/23 08:54:48;;;;;;;4.55;3.20;;;24.50;36.00;;;19.56;61.61;96186.41;5037668;28;20054;-67
2022/09/23 08:57:48;;;;;;;6.05;2.90;;;24.50;35.50;;;19.76;57.20;96196.59;5069788;28;20036;-67
2022/09/23 09:00:20;;;;;;;6.32;3.20;;;24.60;35.00;;;19.97;56.75;96193.16;5028419;28;20044;-66
2022/09/23 09:02:46;;;;;;;6.40;3.30;;;24.80;35.00;;;20.11;58.91;96183.75;4977537;28;20038;-66
2022/09/23 09:05:12;;;;;;;4.97;3.28;;;24.80;35.80;;;20.35;58.53;96194.19;5020847;28;20033;-67
2022/09/23 09:07:39;;;;;;;4.45;2.72;;;24.80;36.30;;;20.56;57.51;96182.72;5053018;28;20106;-66
2022/09/23 09:10:18;;;;;;;5.35;2.85;;;25.00;35.00;;;20.75;55.56;96184.00;4981180;28;20380;-67
2022/09/23 09:12:46;;;;;;;4.20;2.80;;;25.00;36.20;;;20.99;56.32;96178.38;5034652;28;20492;-67
2022/09/23 09:15:21;;;;;;;3.35;2.88;;;25.10;35.40;;;21.14;52.60;96175.06;5069505;28;20156;-67
2022/09/23 09:17:49;;;;;;;3.92;2.83;;;25.20;34.60;;;21.36;54.62;96179.28;5053931;28;20036;-67
2022/09/23 09:20:35;;;;;;;3.97;3.15;;;25.10;34.30;;;21.53;51.10;96170.34;4999497;28;20379;-67
2022/09/23 09:23:22;;;;;;;3.90;2.95;;;25.20;34.90;;;21.79;49.94;96177.47;5013086;28;20464;-66
2022/09/23 09:26:00;;;;;;;7.15;3.10;;;25.60;34.60;;;21.96;51.71;96170.09;5072246;28;20029;-66
2022/09/23 09:28:50;;;;;;;3.05;2.70;;;25.80;33.40;;;22.22;48.60;96164.91;5054320;28;20040;-67
2022/09/23 09:31:33;;;;;;;4.10;3.10;;;26.30;32.70;;;22.58;48.01;96163.16;5017487;28;20033;-66
2022/09/23 09:34:36;;;;;;;5.43;2.88;;;26.50;33.00;;;22.84;46.39;96147.97;5012539;28;20028;-67
2022/09/23 09:37:07;;;;;;;3.53;2.70;;;27.00;31.70;;;23.13;47.59;96141.06;5069511;28;20047;-67
2022/09/23 09:39:33;;;;;;;5.05;3.25;;;27.80;31.50;;;23.41;49.07;96141.59;5062769;28;20025;-66
2022/09/23 09:41:59;;;;;;;4.82;2.80;;;28.20;30.60;;;23.61;47.74;96138.94;5009779;28;20030;-67
2022/09/23 09:44:51;;;;;;;4.55;3.28;;;28.60;29.60;;;23.78;44.66;96139.44;5040269;28;20050;-66
2022/09/23 09:47:50;;;;;;;5.13;2.83;;;29.00;29.90;;;24.17;43.96;96132.63;5012156;28;20513;-66
2022/09/23 09:50:48;;;;;;;4.95;2.90;;;30.40;27.60;;;24.57;43.16;96134.38;5047840;28;20414;-67
2022/09/23 09:53:25;;;;;;;6.63;3.17;;;31.20;26.60;;;25.09;42.89;96130.31;5027311;28;20078;-67
2022/09/23 09:56:07;;;;;;;3.65;2.80;;;32.40;25.00;;;25.83;41.64;96124.59;5037225;28;20036;-67
2022/09/23 09:58:42;;;;;;;4.82;2.42;;;33.50;24.10;;;26.45;42.47;96122.03;5010451;28;20060;-67
2022/09/23 10:01:20;;;;;;;4.78;2.80;;;34.20;23.50;;;27.16;39.69;96115.69;5068883;28;20086;-67
2022/09/23 10:03:46;;;;;;;4.35;2.78;;;35.20;22.80;;;27.63;43.51;96116.56;5056247;28;20142;-67
2022/09/23 10:06:21;;;;;;;4.60;2.63;;;35.90;21.90;;;28.18;41.66;96116.59;4994717;28;20054;-67
2022/09/23 10:09:09;;;;;;;3.95;2.67;;;36.80;21.60;;;28.74;39.45;96110.03;4991588;28;20027;-67
2022/09/23 10:11:35;;;;;;;11.85;6.05;;;37.50;20.30;;;29.27;40.90;96105.59;5029170;28;20095;-67
2022/09/23 10:14:16;;;;;;;5.25;3.03;;;38.00;20.20;;;29.74;34.51;96103.38;5034485;28;20062;-66
2022/09/23 10:16:42;;;;;;;3.40;2.67;;;38.10;19.20;;;30.10;38.25;96100.53;5018588;28;20121;-67
2022/09/23 10:19:13;;;;;;;6.53;3.13;;;38.70;19.40;;;30.39;34.24;96099.19;4934968;28;20514;-67
2022/09/23 10:21:41;;;;;;;4.00;2.40;;;38.90;18.50;;;30.65;36.25;96097.34;4968711;28;20073;-66
2022/09/23 10:24:07;;;;;;;3.53;2.10;;;38.70;18.30;;;30.84;34.38;96097.06;4950886;28;20038;-66
2022/09/23 10:26:49;;;;;;;2.65;2.00;;;38.70;17.60;;;30.98;30.51;96086.81;5009369;28;20523;-67
2022/09/23 10:29:32;;;;;;;2.55;1.98;;;39.00;18.10;;;31.34;29.99;96091.16;5052580;28;20028;-67
2022/09/23 10:32:18;;;;;;;4.20;1.92;;;39.00;18.10;;;31.55;29.10;96081.19;5068848;28;20033;-67
2022/09/23 10:34:45;;;;;;;3.45;2.08;;;39.00;18.20;;;31.79;31.73;96082.59;5046759;28;20063;-67
2022/09/23 10:37:24;;;;;;;2.30;1.90;;;39.20;18.00;;;32.04;28.62;96081.69;5010001;28;20033;-67
2022/09/23 10:48:49;;;;;;;3.05;1.67;;;39.80;17.70;;;33.29;26.81;96079.16;5026396;28;20039;-67